sensor_id;sensor_type;location;lat;lon;timestamp;pressure;altitude;pressure_sealevel;temperature;humidity
51524;BME280;37610;51.790;21.590;2022-10-13T00:03:15;101150.25;;;6.56;70.36
51524;BME280;37610;51.790;21.590;2022-10-13T00:07:17;101146.52;;;6.57;70.24
51524;BME280;37610;51.790;21.590;2022-10-13T00:11:24;101150.56;;;6.57;69.99
51524;BME280;37610;51.790;21.590;2022-10-13T00:15:26;101149.89;;;6.56;69.94
51524;BME280;37610;51.790;21.590;2022-10-13T00:19:27;101150.33;;;6.57;69.93
51524;BME280;37610;51.790;21.590;2022-10-13T00:23:32;101154.00;;;6.56;70.10
51524;BME280;37610;51.790;21.590;2022-10-13T00:27:34;101148.02;;;6.53;69.89
51524;BME280;37610;51.790;21.590;2022-10-13T00:31:35;101145.56;;;6.51;69.75
51524;BME280;37610;51.790;21.590;2022-10-13T00:35:45;101147.40;;;6.48;69.79
51524;BME280;37610;51.790;21.590;2022-10-13T00:39:46;101142.05;;;6.45;69.85
51524;BME280;37610;51.790;21.590;2022-10-13T00:44:01;101141.56;;;6.39;69.73
51524;BME280;37610;51.790;21.590;2022-10-13T00:48:03;101142.04;;;6.35;69.62
51524;BME280;37610;51.790;21.590;2022-10-13T00:52:05;101141.27;;;6.32;69.94
51524;BME280;37610;51.790;21.590;2022-10-13T00:56:08;101141.07;;;6.27;69.65
51524;BME280;37610;51.790;21.590;2022-10-13T01:00:12;101141.98;;;6.22;69.44
51524;BME280;37610;51.790;21.590;2022-10-13T01:04:15;101141.02;;;6.19;69.67
51524;BME280;37610;51.790;21.590;2022-10-13T01:08:19;101138.27;;;6.15;69.65
51524;BME280;37610;51.790;21.590;2022-10-13T01:13:08;101131.09;;;6.12;69.69
51524;BME280;37610;51.790;21.590;2022-10-13T01:21:41;101126.81;;;6.09;69.70
51524;BME280;37610;51.790;21.590;2022-10-13T01:26:07;101124.41;;;6.07;69.65
51524;BME280;37610;51.790;21.590;2022-10-13T01:30:19;101114.54;;;6.06;69.46
51524;BME280;37610;51.790;21.590;2022-10-13T01:39:01;101107.21;;;6.01;69.36
51524;BME280;37610;51.790;21.590;2022-10-13T01:43:15;101107.27;;;6.02;69.81
51524;BME280;37610;51.790;21.590;2022-10-13T01:47:20;101104.14;;;6.04;69.70
51524;BME280;37610;51.790;21.590;2022-10-13T01:51:24;101101.10;;;6.02;69.44
51524;BME280;37610;51.790;21.590;2022-10-13T01:55:27;101102.24;;;6.00;69.45
51524;BME280;37610;51.790;21.590;2022-10-13T01:59:31;101102.61;;;5.96;69.65
51524;BME280;37610;51.790;21.590;2022-10-13T02:03:41;101100.25;;;5.89;69.38
51524;BME280;37610;51.790;21.590;2022-10-13T02:07:55;101094.75;;;5.82;69.67
51524;BME280;37610;51.790;21.590;2022-10-13T02:12:05;101098.20;;;5.80;69.51
51524;BME280;37610;51.790;21.590;2022-10-13T02:16:09;101098.55;;;5.78;69.43
51524;BME280;37610;51.790;21.590;2022-10-13T02:20:12;101097.37;;;5.78;69.51
51524;BME280;37610;51.790;21.590;2022-10-13T02:24:15;101097.09;;;5.72;69.56
51524;BME280;37610;51.790;21.590;2022-10-13T02:28:18;101092.39;;;5.68;69.49
51524;BME280;37610;51.790;21.590;2022-10-13T02:32:20;101092.07;;;5.65;69.51
51524;BME280;37610;51.790;21.590;2022-10-13T02:36:22;101091.88;;;5.65;69.51
51524;BME280;37610;51.790;21.590;2022-10-13T02:40:25;101090.71;;;5.67;69.43
51524;BME280;37610;51.790;21.590;2022-10-13T02:44:27;101083.88;;;5.69;69.50
51524;BME280;37610;51.790;21.590;2022-10-13T02:48:28;101084.30;;;5.70;69.35
51524;BME280;37610;51.790;21.590;2022-10-13T02:52:30;101082.46;;;5.67;69.40
51524;BME280;37610;51.790;21.590;2022-10-13T02:56:31;101082.34;;;5.65;69.27
51524;BME280;37610;51.790;21.590;2022-10-13T03:00:33;101081.30;;;5.61;69.16
51524;BME280;37610;51.790;21.590;2022-10-13T03:04:35;101076.04;;;5.58;69.38
51524;BME280;37610;51.790;21.590;2022-10-13T03:08:36;101075.70;;;5.56;69.38
51524;BME280;37610;51.790;21.590;2022-10-13T03:12:38;101072.86;;;5.53;69.34
51524;BME280;37610;51.790;21.590;2022-10-13T03:16:40;101075.71;;;5.51;69.22
51524;BME280;37610;51.790;21.590;2022-10-13T03:20:41;101077.35;;;5.50;69.31
51524;BME280;37610;51.790;21.590;2022-10-13T03:24:43;101077.81;;;5.51;69.60
51524;BME280;37610;51.790;21.590;2022-10-13T03:28:49;101081.84;;;5.51;69.47
51524;BME280;37610;51.790;21.590;2022-10-13T03:32:51;101079.82;;;5.52;69.56
51524;BME280;37610;51.790;21.590;2022-10-13T03:36:52;101085.52;;;5.52;69.55
51524;BME280;37610;51.790;21.590;2022-10-13T03:40:54;101085.71;;;5.56;69.42
51524;BME280;37610;51.790;21.590;2022-10-13T03:44:55;101078.83;;;5.56;69.62
51524;BME280;37610;51.790;21.590;2022-10-13T03:48:57;101074.98;;;5.58;69.47
51524;BME280;37610;51.790;21.590;2022-10-13T03:52:59;101071.67;;;5.58;69.54
51524;BME280;37610;51.790;21.590;2022-10-13T03:57:00;101066.20;;;5.57;69.42
51524;BME280;37610;51.790;21.590;2022-10-13T04:01:03;101065.98;;;5.59;69.61
51524;BME280;37610;51.790;21.590;2022-10-13T04:05:06;101062.20;;;5.60;69.62
51524;BME280;37610;51.790;21.590;2022-10-13T04:09:07;101057.39;;;5.61;69.43
51524;BME280;37610;51.790;21.590;2022-10-13T04:13:09;101054.45;;;5.57;69.45
51524;BME280;37610;51.790;21.590;2022-10-13T04:17:11;101051.73;;;5.52;69.24
51524;BME280;37610;51.790;21.590;2022-10-13T04:21:13;101054.89;;;5.48;69.28
51524;BME280;37610;51.790;21.590;2022-10-13T04:25:15;101057.80;;;5.45;69.13
51524;BME280;37610;51.790;21.590;2022-10-13T04:29:16;101061.12;;;5.42;69.25
51524;BME280;37610;51.790;21.590;2022-10-13T04:33:18;101060.91;;;5.40;69.36
51524;BME280;37610;51.790;21.590;2022-10-13T04:37:19;101058.98;;;5.42;69.53
51524;BME280;37610;51.790;21.590;2022-10-13T04:41:21;101059.61;;;5.46;69.57
51524;BME280;37610;51.790;21.590;2022-10-13T04:45:23;101060.70;;;5.48;69.60
51524;BME280;37610;51.790;21.590;2022-10-13T04:49:24;101058.66;;;5.45;69.47
51524;BME280;37610;51.790;21.590;2022-10-13T04:53:27;101061.02;;;5.46;69.52
51524;BME280;37610;51.790;21.590;2022-10-13T04:57:29;101058.19;;;5.48;69.51
51524;BME280;37610;51.790;21.590;2022-10-13T05:01:31;101055.79;;;5.48;69.27
51524;BME280;37610;51.790;21.590;2022-10-13T05:05:34;101057.09;;;5.50;69.72
51524;BME280;37610;51.790;21.590;2022-10-13T05:09:35;101062.79;;;5.54;69.55
51524;BME280;37610;51.790;21.590;2022-10-13T05:13:37;101070.26;;;5.50;69.41
51524;BME280;37610;51.790;21.590;2022-10-13T05:17:38;101069.46;;;5.42;69.16
51524;BME280;37610;51.790;21.590;2022-10-13T05:21:40;101071.42;;;5.37;69.28
51524;BME280;37610;51.790;21.590;2022-10-13T05:25:42;101073.98;;;5.35;69.74
51524;BME280;37610;51.790;21.590;2022-10-13T05:29:43;101071.59;;;5.37;69.91
51524;BME280;37610;51.790;21.590;2022-10-13T05:33:46;101073.22;;;5.39;69.99
51524;BME280;37610;51.790;21.590;2022-10-13T05:37:47;101069.39;;;5.44;70.10
51524;BME280;37610;51.790;21.590;2022-10-13T05:41:49;101069.46;;;5.54;70.31
51524;BME280;37610;51.790;21.590;2022-10-13T05:45:50;101073.26;;;5.63;70.26
51524;BME280;37610;51.790;21.590;2022-10-13T05:49:53;101074.95;;;5.71;70.00
51524;BME280;37610;51.790;21.590;2022-10-13T05:54:02;101077.20;;;5.80;70.26
51524;BME280;37610;51.790;21.590;2022-10-13T05:58:06;101079.16;;;5.84;70.31
51524;BME280;37610;51.790;21.590;2022-10-13T06:02:11;101076.27;;;5.89;70.30
51524;BME280;37610;51.790;21.590;2022-10-13T06:06:15;101086.69;;;5.95;70.54
51524;BME280;37610;51.790;21.590;2022-10-13T06:10:17;101085.38;;;6.02;70.63
51524;BME280;37610;51.790;21.590;2022-10-13T06:14:19;101089.39;;;6.11;70.97
51524;BME280;37610;51.790;21.590;2022-10-13T06:18:20;101088.17;;;6.18;71.22
51524;BME280;37610;51.790;21.590;2022-10-13T06:22:21;101086.70;;;6.24;71.42
51524;BME280;37610;51.790;21.590;2022-10-13T06:26:23;101086.54;;;6.32;71.60
51524;BME280;37610;51.790;21.590;2022-10-13T06:30:25;101088.77;;;6.42;71.81
51524;BME280;37610;51.790;21.590;2022-10-13T06:34:27;101090.00;;;6.54;71.75
51524;BME280;37610;51.790;21.590;2022-10-13T06:38:29;101088.55;;;6.66;71.91
51524;BME280;37610;51.790;21.590;2022-10-13T06:42:31;101088.42;;;6.79;72.12
51524;BME280;37610;51.790;21.590;2022-10-13T06:46:34;101083.92;;;6.90;72.28
51524;BME280;37610;51.790;21.590;2022-10-13T06:50:35;101081.77;;;7.02;72.37
51524;BME280;37610;51.790;21.590;2022-10-13T06:54:37;101084.30;;;7.12;72.39
51524;BME280;37610;51.790;21.590;2022-10-13T06:58:38;101084.67;;;7.24;72.57
51524;BME280;37610;51.790;21.590;2022-10-13T07:02:40;101084.85;;;7.36;72.78
51524;BME280;37610;51.790;21.590;2022-10-13T07:06:41;101086.71;;;7.48;73.10
51524;BME280;37610;51.790;21.590;2022-10-13T07:10:43;101083.81;;;7.59;73.25
51524;BME280;37610;51.790;21.590;2022-10-13T07:14:44;101083.33;;;7.71;73.53
51524;BME280;37610;51.790;21.590;2022-10-13T07:18:46;101085.30;;;7.82;73.48
51524;BME280;37610;51.790;21.590;2022-10-13T07:22:48;101085.68;;;7.91;73.65
51524;BME280;37610;51.790;21.590;2022-10-13T07:26:50;101081.95;;;8.04;73.81
51524;BME280;37610;51.790;21.590;2022-10-13T07:30:52;101083.80;;;8.17;74.03
51524;BME280;37610;51.790;21.590;2022-10-13T07:34:53;101084.55;;;8.30;73.84
51524;BME280;37610;51.790;21.590;2022-10-13T07:38:55;101085.58;;;8.44;73.96
51524;BME280;37610;51.790;21.590;2022-10-13T07:42:57;101087.13;;;8.57;73.97
51524;BME280;37610;51.790;21.590;2022-10-13T07:46:58;101085.98;;;8.68;73.88
51524;BME280;37610;51.790;21.590;2022-10-13T07:51:03;101080.48;;;8.80;74.04
51524;BME280;37610;51.790;21.590;2022-10-13T07:55:05;101080.35;;;8.92;74.32
51524;BME280;37610;51.790;21.590;2022-10-13T07:59:07;101073.94;;;9.03;74.46
51524;BME280;37610;51.790;21.590;2022-10-13T08:03:09;101070.01;;;9.14;74.54
51524;BME280;37610;51.790;21.590;2022-10-13T08:07:10;101070.81;;;9.25;74.58
51524;BME280;37610;51.790;21.590;2022-10-13T08:11:14;101059.61;;;9.37;74.35
51524;BME280;37610;51.790;21.590;2022-10-13T08:15:15;101051.50;;;9.47;74.26
51524;BME280;37610;51.790;21.590;2022-10-13T08:19:18;101045.32;;;9.56;73.61
51524;BME280;37610;51.790;21.590;2022-10-13T08:23:22;101039.64;;;9.67;73.32
51524;BME280;37610;51.790;21.590;2022-10-13T08:27:24;101039.71;;;9.79;72.96
51524;BME280;37610;51.790;21.590;2022-10-13T08:31:25;101036.25;;;9.89;72.65
51524;BME280;37610;51.790;21.590;2022-10-13T08:35:27;101030.23;;;9.98;72.57
51524;BME280;37610;51.790;21.590;2022-10-13T08:39:29;101026.52;;;10.08;72.27
51524;BME280;37610;51.790;21.590;2022-10-13T08:43:30;101027.71;;;10.19;72.21
51524;BME280;37610;51.790;21.590;2022-10-13T08:47:42;101024.09;;;10.28;71.51
51524;BME280;37610;51.790;21.590;2022-10-13T08:51:44;101015.71;;;10.38;71.08
51524;BME280;37610;51.790;21.590;2022-10-13T08:55:50;101013.27;;;10.45;70.79
51524;BME280;37610;51.790;21.590;2022-10-13T08:59:52;101008.86;;;10.53;70.39
51524;BME280;37610;51.790;21.590;2022-10-13T09:08:18;101008.50;;;10.69;70.11
51524;BME280;37610;51.790;21.590;2022-10-13T09:12:21;101005.02;;;10.77;69.90
51524;BME280;37610;51.790;21.590;2022-10-13T09:16:41;100999.13;;;10.84;68.57
51524;BME280;37610;51.790;21.590;2022-10-13T09:20:43;101001.64;;;10.90;68.25
51524;BME280;37610;51.790;21.590;2022-10-13T09:24:45;100995.08;;;10.99;68.56
51524;BME280;37610;51.790;21.590;2022-10-13T09:28:47;100988.30;;;11.09;68.25
51524;BME280;37610;51.790;21.590;2022-10-13T09:32:49;100987.73;;;11.19;68.19
51524;BME280;37610;51.790;21.590;2022-10-13T09:36:55;100987.00;;;11.31;67.81
51524;BME280;37610;51.790;21.590;2022-10-13T09:45:14;100988.29;;;11.51;67.56
51524;BME280;37610;51.790;21.590;2022-10-13T09:49:36;100983.77;;;11.59;66.64
51524;BME280;37610;51.790;21.590;2022-10-13T09:53:40;100981.55;;;11.68;66.78
51524;BME280;37610;51.790;21.590;2022-10-13T09:57:44;100980.28;;;11.76;66.48
51524;BME280;37610;51.790;21.590;2022-10-13T10:01:51;100977.04;;;11.86;65.70
51524;BME280;37610;51.790;21.590;2022-10-13T10:05:58;100970.23;;;11.95;65.22
51524;BME280;37610;51.790;21.590;2022-10-13T10:10:05;100963.70;;;12.01;64.74
51524;BME280;37610;51.790;21.590;2022-10-13T10:14:23;100959.03;;;12.07;64.17
51524;BME280;37610;51.790;21.590;2022-10-13T10:18:54;100952.46;;;12.10;64.50
51524;BME280;37610;51.790;21.590;2022-10-13T10:23:19;100946.08;;;12.13;63.82
51524;BME280;37610;51.790;21.590;2022-10-13T10:27:41;100941.38;;;12.21;64.19
51524;BME280;37610;51.790;21.590;2022-10-13T10:40:09;100938.21;;;12.41;62.51
51524;BME280;37610;51.790;21.590;2022-10-13T10:44:14;100935.96;;;12.44;61.80
51524;BME280;37610;51.790;21.590;2022-10-13T10:48:23;100932.46;;;12.49;62.11
51524;BME280;37610;51.790;21.590;2022-10-13T10:52:55;100932.15;;;12.56;61.87
51524;BME280;37610;51.790;21.590;2022-10-13T10:57:04;100927.10;;;12.59;62.27
51524;BME280;37610;51.790;21.590;2022-10-13T11:05:57;100908.45;;;12.73;62.24
51524;BME280;37610;51.790;21.590;2022-10-13T11:14:25;100898.33;;;12.83;62.22
51524;BME280;37610;51.790;21.590;2022-10-13T11:35:24;100860.91;;;13.19;61.38
51524;BME280;37610;51.790;21.590;2022-10-13T11:52:05;100842.84;;;13.63;60.66
51524;BME280;37610;51.790;21.590;2022-10-13T11:56:35;100833.36;;;13.63;60.48
51524;BME280;37610;51.790;21.590;2022-10-13T12:00:37;100821.30;;;13.60;60.12
51524;BME280;37610;51.790;21.590;2022-10-13T12:04:39;100812.86;;;13.66;59.79
51524;BME280;37610;51.790;21.590;2022-10-13T12:08:44;100809.95;;;13.75;59.77
51524;BME280;37610;51.790;21.590;2022-10-13T12:12:49;100804.27;;;13.83;59.24
51524;BME280;37610;51.790;21.590;2022-10-13T12:16:53;100799.78;;;13.90;59.02
51524;BME280;37610;51.790;21.590;2022-10-13T12:20:57;100795.45;;;13.95;59.02
51524;BME280;37610;51.790;21.590;2022-10-13T12:29:04;100788.73;;;14.09;59.23
51524;BME280;37610;51.790;21.590;2022-10-13T12:33:22;100781.14;;;14.15;58.37
51524;BME280;37610;51.790;21.590;2022-10-13T12:41:28;100777.13;;;14.25;58.23
51524;BME280;37610;51.790;21.590;2022-10-13T12:45:32;100777.89;;;14.33;58.60
51524;BME280;37610;51.790;21.590;2022-10-13T12:49:35;100777.70;;;14.39;58.49
51524;BME280;37610;51.790;21.590;2022-10-13T12:53:37;100778.86;;;14.46;58.25
51524;BME280;37610;51.790;21.590;2022-10-13T12:57:39;100771.27;;;14.51;58.02
51524;BME280;37610;51.790;21.590;2022-10-13T13:01:42;100771.23;;;14.57;57.03
51524;BME280;37610;51.790;21.590;2022-10-13T13:05:44;100769.60;;;14.61;57.45
51524;BME280;37610;51.790;21.590;2022-10-13T13:10:20;100765.07;;;14.65;57.64
51524;BME280;37610;51.790;21.590;2022-10-13T13:14:32;100761.58;;;14.74;57.30
51524;BME280;37610;51.790;21.590;2022-10-13T13:18:39;100761.43;;;14.84;57.30
51524;BME280;37610;51.790;21.590;2022-10-13T13:22:42;100759.91;;;14.94;56.97
51524;BME280;37610;51.790;21.590;2022-10-13T13:26:44;100761.73;;;14.98;56.78
51524;BME280;37610;51.790;21.590;2022-10-13T13:30:46;100757.77;;;15.02;56.75
51524;BME280;37610;51.790;21.590;2022-10-13T13:34:48;100754.95;;;15.08;56.38
51524;BME280;37610;51.790;21.590;2022-10-13T13:38:51;100754.05;;;15.14;56.35
51524;BME280;37610;51.790;21.590;2022-10-13T13:42:53;100753.05;;;15.18;56.17
51524;BME280;37610;51.790;21.590;2022-10-13T13:46:54;100751.11;;;15.21;55.81
51524;BME280;37610;51.790;21.590;2022-10-13T13:50:56;100748.86;;;15.24;55.86
51524;BME280;37610;51.790;21.590;2022-10-13T13:54:57;100745.08;;;15.29;55.94
51524;BME280;37610;51.790;21.590;2022-10-13T13:58:59;100737.55;;;15.35;55.85
51524;BME280;37610;51.790;21.590;2022-10-13T14:03:00;100738.74;;;15.40;55.80
51524;BME280;37610;51.790;21.590;2022-10-13T14:07:02;100740.69;;;15.45;55.51
51524;BME280;37610;51.790;21.590;2022-10-13T14:11:06;100740.99;;;15.51;55.22
51524;BME280;37610;51.790;21.590;2022-10-13T14:15:09;100742.48;;;15.54;54.70
51524;BME280;37610;51.790;21.590;2022-10-13T14:19:10;100739.40;;;15.57;54.98
51524;BME280;37610;51.790;21.590;2022-10-13T14:23:12;100738.34;;;15.60;54.70
51524;BME280;37610;51.790;21.590;2022-10-13T14:27:13;100734.59;;;15.64;54.80
51524;BME280;37610;51.790;21.590;2022-10-13T14:31:15;100733.50;;;15.63;54.73
51524;BME280;37610;51.790;21.590;2022-10-13T14:35:17;100728.44;;;15.59;54.66
51524;BME280;37610;51.790;21.590;2022-10-13T14:39:18;100726.39;;;15.56;54.75
51524;BME280;37610;51.790;21.590;2022-10-13T14:43:19;100724.40;;;15.57;54.47
51524;BME280;37610;51.790;21.590;2022-10-13T14:47:21;100724.95;;;15.60;54.39
51524;BME280;37610;51.790;21.590;2022-10-13T14:51:22;100721.34;;;15.62;54.22
51524;BME280;37610;51.790;21.590;2022-10-13T14:55:24;100716.29;;;15.64;53.76
51524;BME280;37610;51.790;21.590;2022-10-13T14:59:26;100713.73;;;15.64;53.93
51524;BME280;37610;51.790;21.590;2022-10-13T15:03:27;100710.83;;;15.65;53.63
51524;BME280;37610;51.790;21.590;2022-10-13T15:07:29;100715.83;;;15.61;53.44
51524;BME280;37610;51.790;21.590;2022-10-13T15:11:30;100716.71;;;15.57;53.54
51524;BME280;37610;51.790;21.590;2022-10-13T15:15:32;100705.55;;;15.49;53.61
51524;BME280;37610;51.790;21.590;2022-10-13T15:19:33;100698.06;;;15.37;53.38
51524;BME280;37610;51.790;21.590;2022-10-13T15:23:35;100704.35;;;15.16;53.45
51524;BME280;37610;51.790;21.590;2022-10-13T15:27:36;100704.90;;;14.95;53.68
51524;BME280;37610;51.790;21.590;2022-10-13T15:31:39;100705.69;;;14.72;53.94
51524;BME280;37610;51.790;21.590;2022-10-13T15:35:41;100703.66;;;14.53;54.30
51524;BME280;37610;51.790;21.590;2022-10-13T15:39:42;100701.89;;;14.32;54.85
51524;BME280;37610;51.790;21.590;2022-10-13T15:43:44;100698.10;;;14.11;55.09
51524;BME280;37610;51.790;21.590;2022-10-13T15:47:45;100697.05;;;13.90;55.20
51524;BME280;37610;51.790;21.590;2022-10-13T15:51:47;100696.65;;;13.68;55.40
51524;BME280;37610;51.790;21.590;2022-10-13T15:55:48;100695.20;;;13.46;55.66
51524;BME280;37610;51.790;21.590;2022-10-13T15:59:50;100696.44;;;13.19;56.13
51524;BME280;37610;51.790;21.590;2022-10-13T16:03:53;100700.76;;;12.85;56.64
51524;BME280;37610;51.790;21.590;2022-10-13T16:07:55;100698.36;;;12.58;57.21
51524;BME280;37610;51.790;21.590;2022-10-13T16:11:56;100698.20;;;12.36;57.61
51524;BME280;37610;51.790;21.590;2022-10-13T16:15:59;100695.21;;;12.10;58.21
51524;BME280;37610;51.790;21.590;2022-10-13T16:20:02;100699.08;;;11.78;58.53
51524;BME280;37610;51.790;21.590;2022-10-13T16:24:04;100691.34;;;11.61;59.04
51524;BME280;37610;51.790;21.590;2022-10-13T16:28:06;100688.88;;;11.47;59.37
51524;BME280;37610;51.790;21.590;2022-10-13T16:32:07;100689.38;;;11.34;59.75
51524;BME280;37610;51.790;21.590;2022-10-13T16:36:12;100685.85;;;11.19;60.16
51524;BME280;37610;51.790;21.590;2022-10-13T16:40:14;100686.16;;;11.08;60.65
51524;BME280;37610;51.790;21.590;2022-10-13T16:44:16;100683.60;;;10.92;61.38
51524;BME280;37610;51.790;21.590;2022-10-13T16:48:17;100680.72;;;10.75;61.41
51524;BME280;37610;51.790;21.590;2022-10-13T16:52:19;100680.84;;;10.66;61.72
51524;BME280;37610;51.790;21.590;2022-10-13T16:56:21;100684.67;;;10.61;61.85
51524;BME280;37610;51.790;21.590;2022-10-13T17:00:23;100685.46;;;10.57;62.25
51524;BME280;37610;51.790;21.590;2022-10-13T17:04:24;100688.08;;;10.53;62.66
51524;BME280;37610;51.790;21.590;2022-10-13T17:08:26;100689.06;;;10.47;62.68
51524;BME280;37610;51.790;21.590;2022-10-13T17:12:28;100683.40;;;10.39;62.83
51524;BME280;37610;51.790;21.590;2022-10-13T17:16:30;100687.29;;;10.32;62.90
51524;BME280;37610;51.790;21.590;2022-10-13T17:20:32;100686.84;;;10.25;63.07
51524;BME280;37610;51.790;21.590;2022-10-13T17:24:34;100685.12;;;10.16;63.16
51524;BME280;37610;51.790;21.590;2022-10-13T17:28:36;100676.99;;;10.08;63.32
51524;BME280;37610;51.790;21.590;2022-10-13T17:32:38;100679.58;;;10.01;63.42
51524;BME280;37610;51.790;21.590;2022-10-13T17:36:40;100678.88;;;9.96;63.64
51524;BME280;37610;51.790;21.590;2022-10-13T17:40:41;100677.82;;;9.90;63.90
51524;BME280;37610;51.790;21.590;2022-10-13T17:44:43;100674.37;;;9.84;63.96
51524;BME280;37610;51.790;21.590;2022-10-13T17:48:44;100673.59;;;9.78;64.04
51524;BME280;37610;51.790;21.590;2022-10-13T17:52:47;100668.66;;;9.72;64.13
51524;BME280;37610;51.790;21.590;2022-10-13T17:56:49;100666.41;;;9.70;64.41
51524;BME280;37610;51.790;21.590;2022-10-13T18:00:50;100666.71;;;9.66;64.49
51524;BME280;37610;51.790;21.590;2022-10-13T18:04:52;100665.98;;;9.61;64.58
51524;BME280;37610;51.790;21.590;2022-10-13T18:08:53;100668.86;;;9.58;64.77
51524;BME280;37610;51.790;21.590;2022-10-13T18:12:55;100667.59;;;9.55;64.61
51524;BME280;37610;51.790;21.590;2022-10-13T18:16:56;100659.21;;;9.48;64.59
51524;BME280;37610;51.790;21.590;2022-10-13T18:21:06;100656.51;;;9.41;64.75
51524;BME280;37610;51.790;21.590;2022-10-13T18:25:07;100657.54;;;9.39;64.84
51524;BME280;37610;51.790;21.590;2022-10-13T18:29:10;100657.81;;;9.35;64.88
51524;BME280;37610;51.790;21.590;2022-10-13T18:33:12;100655.87;;;9.31;65.21
51524;BME280;37610;51.790;21.590;2022-10-13T18:37:13;100652.38;;;9.26;65.01
51524;BME280;37610;51.790;21.590;2022-10-13T18:41:16;100648.23;;;9.24;65.21
51524;BME280;37610;51.790;21.590;2022-10-13T18:45:18;100645.39;;;9.24;65.16
51524;BME280;37610;51.790;21.590;2022-10-13T18:49:19;100644.67;;;9.21;65.20
51524;BME280;37610;51.790;21.590;2022-10-13T18:53:23;100644.48;;;9.19;65.31
51524;BME280;37610;51.790;21.590;2022-10-13T18:57:24;100643.39;;;9.18;65.44
51524;BME280;37610;51.790;21.590;2022-10-13T19:01:29;100643.35;;;9.17;65.35
51524;BME280;37610;51.790;21.590;2022-10-13T19:05:36;100638.55;;;9.14;65.45
51524;BME280;37610;51.790;21.590;2022-10-13T19:09:39;100640.31;;;9.12;65.40
51524;BME280;37610;51.790;21.590;2022-10-13T19:13:40;100635.14;;;9.09;65.57
51524;BME280;37610;51.790;21.590;2022-10-13T19:17:42;100632.24;;;9.04;65.41
51524;BME280;37610;51.790;21.590;2022-10-13T19:21:43;100629.78;;;8.97;65.46
51524;BME280;37610;51.790;21.590;2022-10-13T19:25:45;100629.48;;;8.93;65.53
51524;BME280;37610;51.790;21.590;2022-10-13T19:29:50;100625.04;;;8.87;65.65
51524;BME280;37610;51.790;21.590;2022-10-13T19:33:52;100623.66;;;8.84;65.73
51524;BME280;37610;51.790;21.590;2022-10-13T19:37:54;100627.30;;;8.83;65.91
51524;BME280;37610;51.790;21.590;2022-10-13T19:41:56;100626.16;;;8.82;65.77
51524;BME280;37610;51.790;21.590;2022-10-13T19:45:58;100624.90;;;8.81;65.82
51524;BME280;37610;51.790;21.590;2022-10-13T19:50:00;100623.20;;;8.79;66.03
51524;BME280;37610;51.790;21.590;2022-10-13T19:54:02;100621.98;;;8.76;65.95
51524;BME280;37610;51.790;21.590;2022-10-13T19:58:04;100623.27;;;8.71;65.92
51524;BME280;37610;51.790;21.590;2022-10-13T20:02:05;100622.50;;;8.60;65.97
51524;BME280;37610;51.790;21.590;2022-10-13T20:06:07;100626.74;;;8.47;66.06
51524;BME280;37610;51.790;21.590;2022-10-13T20:10:09;100629.46;;;8.39;66.25
51524;BME280;37610;51.790;21.590;2022-10-13T20:14:11;100627.48;;;8.30;66.19
51524;BME280;37610;51.790;21.590;2022-10-13T20:18:14;100620.00;;;8.21;66.22
51524;BME280;37610;51.790;21.590;2022-10-13T20:22:15;100613.91;;;8.16;66.43
51524;BME280;37610;51.790;21.590;2022-10-13T20:26:18;100614.23;;;8.11;66.73
51524;BME280;37610;51.790;21.590;2022-10-13T20:30:20;100613.06;;;8.03;66.67
51524;BME280;37610;51.790;21.590;2022-10-13T20:34:21;100612.74;;;7.95;66.81
51524;BME280;37610;51.790;21.590;2022-10-13T20:38:23;100612.55;;;7.88;66.85
51524;BME280;37610;51.790;21.590;2022-10-13T20:42:24;100616.79;;;7.82;66.93
51524;BME280;37610;51.790;21.590;2022-10-13T20:46:26;100614.35;;;7.79;66.88
51524;BME280;37610;51.790;21.590;2022-10-13T20:50:28;100612.76;;;7.78;66.91
51524;BME280;37610;51.790;21.590;2022-10-13T20:54:29;100604.92;;;7.79;67.01
51524;BME280;37610;51.790;21.590;2022-10-13T20:58:33;100600.72;;;7.80;67.01
51524;BME280;37610;51.790;21.590;2022-10-13T21:02:35;100599.44;;;7.81;67.17
51524;BME280;37610;51.790;21.590;2022-10-13T21:06:37;100601.73;;;7.81;67.47
51524;BME280;37610;51.790;21.590;2022-10-13T21:10:39;100596.41;;;7.72;67.30
51524;BME280;37610;51.790;21.590;2022-10-13T21:14:41;100593.77;;;7.70;67.35
51524;BME280;37610;51.790;21.590;2022-10-13T21:18:44;100592.56;;;7.68;67.30
51524;BME280;37610;51.790;21.590;2022-10-13T21:22:49;100585.03;;;7.70;67.41
51524;BME280;37610;51.790;21.590;2022-10-13T21:26:51;100588.34;;;7.69;67.64
51524;BME280;37610;51.790;21.590;2022-10-13T21:31:20;100593.61;;;7.61;67.87
51524;BME280;37610;51.790;21.590;2022-10-13T21:35:22;100598.28;;;7.50;67.92
51524;BME280;37610;51.790;21.590;2022-10-13T21:39:24;100592.90;;;7.44;67.97
51524;BME280;37610;51.790;21.590;2022-10-13T21:43:25;100588.34;;;7.41;68.01
51524;BME280;37610;51.790;21.590;2022-10-13T21:47:33;100586.44;;;7.42;68.12
51524;BME280;37610;51.790;21.590;2022-10-13T21:51:37;100581.55;;;7.45;68.10
51524;BME280;37610;51.790;21.590;2022-10-13T21:55:39;100573.23;;;7.47;68.11
51524;BME280;37610;51.790;21.590;2022-10-13T21:59:41;100577.21;;;7.44;68.49
51524;BME280;37610;51.790;21.590;2022-10-13T22:03:42;100578.61;;;7.43;68.41
51524;BME280;37610;51.790;21.590;2022-10-13T22:07:44;100573.41;;;7.44;68.47
51524;BME280;37610;51.790;21.590;2022-10-13T22:11:46;100567.20;;;7.46;68.44
51524;BME280;37610;51.790;21.590;2022-10-13T22:15:47;100568.58;;;7.45;68.45
51524;BME280;37610;51.790;21.590;2022-10-13T22:19:48;100567.46;;;7.48;68.46